Time;durP1;ratioP1;P1;durP2;ratioP2;P2;SDS_P1;SDS_P2;PMS_P1;PMS_P2;Temp;Humidity;BMP_temperature;BMP_pressure;BME280_temperature;BME280_humidity;BME280_pressure;Samples;Min_cycle;Max_cycle;Signal;HPM_P1;HPM_P2
2021/10/06 00:01:20;;;;;;;3.70;3.40;;;14.00;99.90;;;;;;5063315;28;20488;-33
2021/10/06 00:03:51;;;;;;;5.53;3.93;;;14.00;99.90;;;;;;5064786;28;20895;-33
2021/10/06 00:06:23;;;;;;;4.40;4.00;;;13.90;99.90;;;;;;5064846;28;20989;-33
2021/10/06 00:08:54;;;;;;;6.87;4.30;;;13.90;99.90;;;;;;5058989;28;20460;-33
2021/10/06 00:11:25;;;;;;;7.47;4.43;;;13.90;99.90;;;;;;5064282;28;20476;-33
2021/10/06 00:13:58;;;;;;;4.93;4.00;;;14.00;99.90;;;;;;5063871;28;20520;-33
2021/10/06 00:16:30;;;;;;;5.40;4.13;;;14.10;99.90;;;;;;5063635;28;20472;-34
2021/10/06 00:19:01;;;;;;;4.33;3.90;;;14.00;99.90;;;;;;5064873;28;20515;-33
2021/10/06 00:21:32;;;;;;;7.97;3.90;;;13.90;99.90;;;;;;5056385;28;20452;-33
2021/10/06 00:24:05;;;;;;;3.80;3.23;;;14.00;99.90;;;;;;5063629;28;20444;-34
2021/10/06 00:26:36;;;;;;;4.70;3.73;;;14.00;99.90;;;;;;5065324;28;20417;-33
2021/10/06 00:29:08;;;;;;;3.40;3.10;;;13.90;99.90;;;;;;5063940;28;20476;-33
2021/10/06 00:31:39;;;;;;;4.90;3.07;;;13.90;99.90;;;;;;5061878;28;20440;-33
2021/10/06 00:34:10;;;;;;;4.60;3.13;;;13.80;99.90;;;;;;5065333;28;20491;-33
2021/10/06 00:36:41;;;;;;;3.60;2.90;;;13.80;99.90;;;;;;5063968;28;20479;-33
2021/10/06 00:39:12;;;;;;;5.90;3.07;;;13.80;99.90;;;;;;5064806;28;20475;-33
2021/10/06 00:41:43;;;;;;;4.20;3.37;;;13.80;99.90;;;;;;5064895;28;20537;-33
2021/10/06 00:44:20;;;;;;;4.10;3.40;;;13.80;99.90;;;;;;5064947;28;20514;-34
2021/10/06 00:46:52;;;;;;;4.60;3.47;;;13.90;99.90;;;;;;5064502;28;20498;-34
2021/10/06 00:49:23;;;;;;;5.00;3.40;;;13.80;99.90;;;;;;5064462;28;20506;-34
2021/10/06 00:51:55;;;;;;;7.23;3.53;;;13.90;99.90;;;;;;5064622;28;20536;-32
2021/10/06 00:54:26;;;;;;;4.13;3.80;;;13.80;99.90;;;;;;5064576;28;20581;-33
2021/10/06 00:56:57;;;;;;;5.07;4.43;;;13.90;99.90;;;;;;5065608;28;20417;-34
2021/10/06 00:59:30;;;;;;;7.60;3.87;;;13.90;99.90;;;;;;5065150;28;20448;-32
2021/10/06 01:02:01;;;;;;;5.17;3.80;;;13.70;99.90;;;;;;5064066;28;20524;-34
2021/10/06 01:04:33;;;;;;;5.90;3.90;;;13.50;99.90;;;;;;5064599;28;20449;-34
2021/10/06 01:07:04;;;;;;;6.63;4.37;;;13.40;99.90;;;;;;5065016;28;20814;-33
2021/10/06 01:09:35;;;;;;;7.13;4.57;;;13.40;99.90;;;;;;5065076;28;20866;-33
2021/10/06 01:12:06;;;;;;;3.93;3.33;;;13.50;99.90;;;;;;5064979;28;20436;-34
2021/10/06 01:14:39;;;;;;;4.67;2.87;;;13.50;99.90;;;;;;5064360;28;20502;-33
2021/10/06 01:17:11;;;;;;;3.23;2.70;;;13.70;99.90;;;;;;5063689;28;20548;-33
2021/10/06 01:19:42;;;;;;;3.87;2.63;;;13.70;99.90;;;;;;5064387;28;20445;-33
2021/10/06 01:22:16;;;;;;;3.80;2.80;;;13.60;99.90;;;;;;5063209;28;20808;-33
2021/10/06 01:24:47;;;;;;;3.90;2.20;;;13.50;99.90;;;;;;5064715;28;20491;-33
2021/10/06 01:27:18;;;;;;;3.03;2.73;;;13.50;99.90;;;;;;5064591;28;20433;-33
2021/10/06 01:29:49;;;;;;;3.40;3.10;;;13.40;99.90;;;;;;5063784;28;20519;-33
2021/10/06 01:32:21;;;;;;;6.13;4.27;;;13.30;99.90;;;;;;5062073;28;20448;-33
2021/10/06 01:34:59;;;;;;;6.20;4.87;;;13.20;99.90;;;;;;5063198;28;20606;-33
2021/10/06 01:37:32;;;;;;;7.83;5.30;;;13.20;99.90;;;;;;5064043;28;20452;-33
2021/10/06 01:40:06;;;;;;;6.40;5.40;;;13.10;99.90;;;;;;5064571;28;20429;-33
2021/10/06 01:42:36;;;;;;;7.23;6.37;;;13.10;99.90;;;;;;5064172;28;20475;-33
2021/10/06 01:45:15;;;;;;;7.00;6.30;;;13.00;99.90;;;;;;5063618;28;20467;-33
2021/10/06 01:47:46;;;;;;;9.57;7.93;;;13.10;99.90;;;;;;5063622;28;20460;-33
2021/10/06 01:50:23;;;;;;;9.17;8.27;;;13.20;99.90;;;;;;5063717;28;20470;-33
2021/10/06 01:52:56;;;;;;;10.30;8.90;;;13.20;99.90;;;;;;5063650;28;20445;-33
2021/10/06 01:55:29;;;;;;;10.40;8.83;;;13.10;99.90;;;;;;5063672;28;20552;-33
2021/10/06 01:58:01;;;;;;;10.50;9.40;;;13.10;99.90;;;;;;5064236;28;20884;-33
2021/10/06 02:00:33;;;;;;;11.20;9.63;;;13.00;99.90;;;;;;5063040;28;20464;-33
2021/10/06 02:03:04;;;;;;;10.23;9.20;;;13.00;99.90;;;;;;5062705;28;20456;-33
2021/10/06 02:05:38;;;;;;;13.90;10.00;;;12.90;99.90;;;;;;5063538;28;20555;-33
2021/10/06 02:08:14;;;;;;;11.30;10.30;;;12.80;99.90;;;;;;5063510;28;20436;-33
2021/10/06 02:10:45;;;;;;;13.37;9.80;;;12.80;99.90;;;;;;5050779;28;20475;-33
2021/10/06 02:13:17;;;;;;;11.23;10.23;;;12.80;99.90;;;;;;5063334;28;20449;-33
2021/10/06 02:15:48;;;;;;;11.33;10.23;;;12.70;99.90;;;;;;5062853;28;20561;-33
2021/10/06 02:18:19;;;;;;;12.60;10.57;;;12.70;99.90;;;;;;5062987;28;20452;-33
2021/10/06 02:20:50;;;;;;;11.50;10.40;;;12.70;99.90;;;;;;5062417;28;20546;-33
2021/10/06 02:23:22;;;;;;;14.30;10.23;;;12.80;99.90;;;;;;5062607;28;20444;-33
2021/10/06 02:25:55;;;;;;;13.27;10.17;;;12.70;99.90;;;;;;5059855;28;20928;-33
2021/10/06 02:28:26;;;;;;;10.77;9.73;;;12.70;99.90;;;;;;5061379;28;20484;-33
2021/10/06 02:30:57;;;;;;;11.10;10.10;;;12.70;99.90;;;;;;5062741;28;20452;-33
2021/10/06 02:33:28;;;;;;;10.07;9.23;;;12.70;99.90;;;;;;5062143;28;20556;-33
2021/10/06 02:35:58;;;;;;;10.37;9.37;;;12.70;99.90;;;;;;5062859;28;20501;-33
2021/10/06 02:38:31;;;;;;;11.90;10.77;;;12.60;99.90;;;;;;5063352;28;20449;-33
2021/10/06 02:41:02;;;;;;;11.33;9.47;;;12.60;99.90;;;;;;5062145;28;20979;-33
2021/10/06 02:43:33;;;;;;;10.23;9.33;;;12.60;99.90;;;;;;5062977;28;20754;-33
2021/10/06 02:46:04;;;;;;;11.77;9.20;;;12.60;99.90;;;;;;5062426;28;20452;-33
2021/10/06 02:48:35;;;;;;;11.90;9.03;;;12.60;99.90;;;;;;5062651;28;20452;-33
2021/10/06 02:51:06;;;;;;;10.43;9.33;;;12.60;99.90;;;;;;5055659;28;20795;-33
2021/10/06 02:53:39;;;;;;;10.67;9.57;;;12.50;99.90;;;;;;5063179;28;20445;-33
2021/10/06 02:56:10;;;;;;;10.20;9.20;;;12.50;99.90;;;;;;5062706;28;20508;-33
2021/10/06 02:58:40;;;;;;;10.90;9.00;;;12.50;99.90;;;;;;5061806;28;20484;-33
2021/10/06 03:01:12;;;;;;;10.43;9.40;;;12.40;99.90;;;;;;5062350;28;20448;-33
2021/10/06 03:03:43;;;;;;;9.87;8.93;;;12.50;99.90;;;;;;5062801;28;20448;-33
2021/10/06 03:06:14;;;;;;;12.77;8.90;;;12.40;99.90;;;;;;5062741;28;20462;-33
2021/10/06 03:08:47;;;;;;;10.13;8.37;;;12.40;99.90;;;;;;5063159;28;20444;-33
2021/10/06 03:11:21;;;;;;;9.67;7.80;;;12.30;99.90;;;;;;5062563;28;20440;-32
2021/10/06 03:13:52;;;;;;;9.23;8.30;;;12.30;99.90;;;;;;5062874;28;20455;-33
2021/10/06 03:16:24;;;;;;;11.60;9.37;;;12.20;99.90;;;;;;5061648;28;20507;-33
2021/10/06 03:18:55;;;;;;;9.20;8.40;;;12.20;99.90;;;;;;5062933;28;20448;-33
2021/10/06 03:21:26;;;;;;;10.30;9.17;;;12.30;99.90;;;;;;5062452;28;20533;-33
2021/10/06 03:23:59;;;;;;;9.00;8.20;;;12.20;99.90;;;;;;5043303;28;20475;-33
2021/10/06 03:26:30;;;;;;;10.40;8.70;;;12.20;99.90;;;;;;5061637;28;20473;-33
2021/10/06 03:29:01;;;;;;;10.43;8.77;;;12.20;99.90;;;;;;5063284;28;20453;-32
2021/10/06 03:31:32;;;;;;;12.47;9.47;;;12.20;99.90;;;;;;5059801;28;20529;-33
2021/10/06 03:34:03;;;;;;;10.90;9.30;;;12.10;99.90;;;;;;5064084;28;20444;-33
2021/10/06 03:36:34;;;;;;;8.70;7.80;;;12.10;99.90;;;;;;5063200;28;20440;-33
2021/10/06 03:39:06;;;;;;;9.87;8.33;;;12.10;99.90;;;;;;5065842;28;20594;-33
2021/10/06 03:41:37;;;;;;;9.70;8.70;;;12.10;99.90;;;;;;5061207;28;20448;-32
2021/10/06 03:44:08;;;;;;;9.90;8.90;;;12.00;99.90;;;;;;5065176;28;20498;-33
2021/10/06 03:46:39;;;;;;;9.43;8.40;;;12.00;99.90;;;;;;5062351;28;20444;-33
2021/10/06 03:49:10;;;;;;;11.10;8.60;;;12.00;99.90;;;;;;5064428;28;20484;-33
2021/10/06 03:51:41;;;;;;;9.90;8.63;;;12.00;99.90;;;;;;5065239;28;20820;-32
2021/10/06 03:54:14;;;;;;;11.37;8.80;;;12.00;99.90;;;;;;5066026;28;20440;-33
2021/10/06 03:56:45;;;;;;;10.60;8.57;;;11.90;99.90;;;;;;5066289;28;20433;-33
2021/10/06 03:59:16;;;;;;;10.20;9.20;;;11.90;99.90;;;;;;5066799;28;20476;-33
2021/10/06 04:01:47;;;;;;;11.00;7.63;;;11.90;99.90;;;;;;5064776;28;20448;-33
2021/10/06 04:04:18;;;;;;;10.43;8.47;;;11.90;99.90;;;;;;5066607;28;20515;-32
2021/10/06 04:06:49;;;;;;;12.27;9.00;;;11.90;99.90;;;;;;5066195;28;20959;-33
2021/10/06 04:09:21;;;;;;;11.43;8.20;;;12.00;99.90;;;;;;5066843;28;20449;-32
2021/10/06 04:11:52;;;;;;;9.53;8.27;;;11.90;99.90;;;;;;5066561;28;20433;-32
2021/10/06 04:14:23;;;;;;;8.50;7.67;;;12.00;99.90;;;;;;5065982;28;20452;-32
2021/10/06 04:17:32;;;;;;;11.10;8.10;;;12.00;99.90;;;;;;5065277;28;20472;-32
2021/10/06 04:20:03;;;;;;;12.57;8.07;;;12.00;99.90;;;;;;5064088;28;20448;-32
2021/10/06 04:22:34;;;;;;;9.83;7.90;;;12.00;99.90;;;;;;5065975;28;20456;-32
2021/10/06 04:25:08;;;;;;;13.17;9.10;;;12.00;99.90;;;;;;5079114;28;20449;-33
2021/10/06 04:27:39;;;;;;;10.50;8.60;;;11.90;99.90;;;;;;5065911;28;20592;-33
2021/10/06 04:30:11;;;;;;;10.87;8.43;;;11.90;99.90;;;;;;5066472;28;20463;-33
2021/10/06 04:32:42;;;;;;;10.50;9.33;;;11.90;99.90;;;;;;5065602;28;20448;-33
2021/10/06 04:35:13;;;;;;;9.43;8.53;;;11.90;99.90;;;;;;5062925;28;20479;-33
2021/10/06 04:37:44;;;;;;;10.00;9.00;;;11.80;99.90;;;;;;5064890;28;20479;-33
2021/10/06 04:40:17;;;;;;;13.10;10.77;;;11.90;99.90;;;;;;5067310;28;20472;-33
2021/10/06 04:42:48;;;;;;;13.00;9.27;;;11.80;99.90;;;;;;5065378;28;20421;-32
2021/10/06 04:45:19;;;;;;;9.60;8.60;;;11.70;99.90;;;;;;5065488;28;20449;-33
2021/10/06 04:47:50;;;;;;;10.77;9.40;;;11.70;99.90;;;;;;5065106;28;20456;-32
2021/10/06 04:50:22;;;;;;;10.43;9.27;;;11.70;99.90;;;;;;5065249;28;20480;-32
2021/10/06 04:52:53;;;;;;;11.40;10.10;;;11.70;99.90;;;;;;5065867;28;20476;-32
2021/10/06 04:55:26;;;;;;;13.40;11.00;;;11.70;99.90;;;;;;5065430;28;20571;-33
2021/10/06 04:57:58;;;;;;;11.23;10.10;;;11.70;99.90;;;;;;5063991;28;20861;-33
2021/10/06 05:00:30;;;;;;;14.27;10.37;;;11.70;99.90;;;;;;5061616;28;20453;-32
2021/10/06 05:03:08;;;;;;;9.60;8.70;;;11.70;99.90;;;;;;5056291;28;20619;-32
2021/10/06 05:05:40;;;;;;;12.90;9.80;;;11.60;99.90;;;;;;5065467;28;20591;-32
2021/10/06 05:08:11;;;;;;;9.63;8.50;;;11.60;99.90;;;;;;5065011;28;20449;-32
2021/10/06 05:10:44;;;;;;;9.23;8.47;;;11.60;99.90;;;;;;5065624;28;20475;-32
2021/10/06 05:13:15;;;;;;;10.10;9.10;;;11.60;99.90;;;;;;5071328;28;20467;-33
2021/10/06 05:15:46;;;;;;;10.03;8.80;;;11.60;99.90;;;;;;5063512;28;20522;-32
2021/10/06 05:18:18;;;;;;;9.93;8.90;;;11.50;99.90;;;;;;5059713;28;20495;-33
2021/10/06 05:20:49;;;;;;;11.10;8.13;;;11.60;99.90;;;;;;5065079;28;20928;-32
2021/10/06 05:23:20;;;;;;;8.53;7.73;;;11.50;99.90;;;;;;5064464;28;20461;-33
2021/10/06 05:25:52;;;;;;;8.80;8.00;;;11.40;99.90;;;;;;5064889;28;20452;-33
2021/10/06 05:28:23;;;;;;;9.33;7.60;;;11.40;99.90;;;;;;5064295;28;20452;-33
2021/10/06 05:30:55;;;;;;;11.97;7.60;;;11.40;99.90;;;;;;5065033;28;20444;-32
2021/10/06 05:33:26;;;;;;;9.37;7.13;;;11.40;99.90;;;;;;5063618;28;20544;-32
2021/10/06 05:35:57;;;;;;;10.90;8.60;;;11.40;99.90;;;;;;5064943;28;20530;-33
2021/10/06 05:38:28;;;;;;;6.90;6.20;;;11.40;99.90;;;;;;5064139;28;20943;-33
2021/10/06 05:41:00;;;;;;;8.97;7.77;;;11.40;99.90;;;;;;5064755;28;20472;-33
2021/10/06 05:43:31;;;;;;;8.83;7.70;;;11.40;99.90;;;;;;5063807;28;20451;-32
2021/10/06 05:46:02;;;;;;;10.73;8.63;;;11.40;99.90;;;;;;5064515;28;20460;-33
2021/10/06 05:48:33;;;;;;;9.90;8.90;;;11.40;99.90;;;;;;5062957;28;20456;-33
2021/10/06 05:51:04;;;;;;;10.00;7.87;;;11.30;99.90;;;;;;5063919;28;20461;-33
2021/10/06 05:53:35;;;;;;;9.83;7.37;;;11.30;99.90;;;;;;5064176;28;20480;-33
2021/10/06 05:56:08;;;;;;;8.67;7.43;;;11.20;99.90;;;;;;5063809;28;20508;-33
2021/10/06 05:58:39;;;;;;;12.53;8.77;;;11.20;99.90;;;;;;5063627;28;20455;-33
2021/10/06 06:01:11;;;;;;;8.70;7.80;;;11.10;99.90;;;;;;5053809;28;20464;-33
2021/10/06 06:03:42;;;;;;;12.20;8.00;;;11.10;99.90;;;;;;5063046;28;20468;-33
2021/10/06 06:06:13;;;;;;;8.87;7.87;;;11.00;99.90;;;;;;5063914;28;20456;-33
2021/10/06 06:08:44;;;;;;;9.73;8.40;;;11.00;99.90;;;;;;5063342;28;20476;-32
2021/10/06 06:11:16;;;;;;;10.77;9.10;;;11.00;99.90;;;;;;5064029;28;20472;-32
2021/10/06 06:13:47;;;;;;;12.90;9.13;;;11.00;99.90;;;;;;5063471;28;20465;-32
2021/10/06 06:16:19;;;;;;;9.63;8.73;;;11.00;99.90;;;;;;5059575;28;20496;-32
2021/10/06 06:18:50;;;;;;;13.30;9.27;;;10.90;99.90;;;;;;5062753;28;20680;-32
2021/10/06 06:21:21;;;;;;;10.70;9.43;;;11.00;99.90;;;;;;5063587;28;20456;-32
2021/10/06 06:23:52;;;;;;;11.50;9.70;;;11.00;99.90;;;;;;5063436;28;20916;-33
2021/10/06 06:26:25;;;;;;;11.77;10.57;;;10.90;99.90;;;;;;5063515;28;20193;-33
2021/10/06 06:28:55;;;;;;;11.68;9.68;;;11.00;99.90;;;;;;5063480;28;20290;-33
2021/10/06 06:31:26;;;;;;;11.20;10.20;;;11.00;99.90;;;;;;5062016;28;20198;-33
2021/10/06 06:33:57;;;;;;;12.77;9.50;;;11.00;99.90;;;;;;5062881;28;20994;-33
2021/10/06 06:36:28;;;;;;;17.43;10.10;;;10.90;99.90;;;;;;5062889;28;20547;-33
2021/10/06 06:38:59;;;;;;;12.23;9.93;;;10.90;99.90;;;;;;5063013;28;20480;-33
2021/10/06 06:41:32;;;;;;;11.98;8.55;;;10.90;99.90;;;;;;5062923;28;20233;-33
2021/10/06 06:44:02;;;;;;;16.13;9.40;;;10.90;99.90;;;;;;5062932;28;20214;-33
2021/10/06 06:46:33;;;;;;;10.87;9.07;;;10.90;99.90;;;;;;5061988;28;20460;-33
2021/10/06 06:49:05;;;;;;;11.82;8.05;;;10.80;99.90;;;;;;5062227;28;20508;-33
2021/10/06 06:51:36;;;;;;;10.20;7.97;;;10.80;99.90;;;;;;5063175;28;20744;-33
2021/10/06 06:54:07;;;;;;;11.00;7.80;;;10.70;99.90;;;;;;5062183;28;20475;-33
2021/10/06 06:56:40;;;;;;;7.97;7.20;;;10.70;99.90;;;;;;5062765;28;20938;-33
2021/10/06 06:59:11;;;;;;;9.43;7.47;;;10.60;99.90;;;;;;5063169;28;20435;-33
2021/10/06 07:01:42;;;;;;;7.68;6.28;;;10.60;99.90;;;;;;5047350;28;20545;-33
2021/10/06 07:04:13;;;;;;;6.93;6.20;;;10.60;99.90;;;;;;5043510;28;20216;-33
2021/10/06 07:06:44;;;;;;;10.55;6.18;;;10.60;99.90;;;;;;5064829;28;20463;-33
2021/10/06 07:09:19;;;;;;;10.30;7.53;;;10.50;99.90;;;;;;5069788;28;20206;-33
2021/10/06 07:11:51;;;;;;;5.70;5.20;;;10.50;99.90;;;;;;5069523;28;20443;-33
2021/10/06 07:14:23;;;;;;;8.50;6.07;;;10.50;99.90;;;;;;5069519;28;20472;-33
2021/10/06 07:16:54;;;;;;;11.02;6.10;;;10.50;99.90;;;;;;5068474;28;20328;-33
2021/10/06 07:19:25;;;;;;;7.45;5.60;;;10.50;99.90;;;;;;5068858;28;20216;-33
2021/10/06 07:21:56;;;;;;;9.43;5.80;;;10.40;99.90;;;;;;5069910;28;20667;-33
2021/10/06 07:24:27;;;;;;;8.13;5.95;;;10.40;99.90;;;;;;5068977;28;20315;-33
2021/10/06 07:27:00;;;;;;;7.10;5.90;;;10.40;99.90;;;;;;5069426;28;20224;-33
2021/10/06 07:29:31;;;;;;;11.77;5.90;;;10.40;99.90;;;;;;5069914;28;20468;-33
2021/10/06 07:32:02;;;;;;;8.35;5.80;;;10.50;99.90;;;;;;5068510;28;20463;-33
2021/10/06 07:34:33;;;;;;;8.63;5.37;;;10.50;99.90;;;;;;5068970;28;20217;-33
2021/10/06 07:37:04;;;;;;;6.33;5.07;;;10.40;99.90;;;;;;5069112;28;20523;-33
2021/10/06 07:39:35;;;;;;;7.13;5.15;;;10.40;99.90;;;;;;5069121;28;20448;-33
2021/10/06 07:42:08;;;;;;;7.35;4.93;;;10.30;99.90;;;;;;5069921;28;20260;-33
2021/10/06 07:44:39;;;;;;;5.50;4.80;;;10.30;99.90;;;;;;5067656;28;20228;-33
2021/10/06 07:47:10;;;;;;;8.73;5.45;;;10.30;99.90;;;;;;5068151;28;20209;-33
2021/10/06 07:49:42;;;;;;;6.40;5.32;;;10.30;99.90;;;;;;5068414;28;20198;-33
2021/10/06 07:52:13;;;;;;;8.60;5.35;;;10.30;99.90;;;;;;5069387;28;20205;-33
2021/10/06 07:54:44;;;;;;;7.13;6.00;;;10.30;99.90;;;;;;5068761;28;20236;-33
2021/10/06 07:57:17;;;;;;;13.43;5.72;;;10.30;99.90;;;;;;5058866;28;20206;-33
2021/10/06 07:59:47;;;;;;;8.25;5.55;;;10.30;99.90;;;;;;5069071;28;20201;-33
2021/10/06 08:02:18;;;;;;;9.30;5.93;;;10.10;99.90;;;;;;5067981;28;20221;-33
2021/10/06 08:04:49;;;;;;;6.77;6.03;;;10.10;99.90;;;;;;5068616;28;20194;-33
2021/10/06 08:07:20;;;;;;;9.63;6.22;;;10.10;99.90;;;;;;5067482;28;20916;-33
2021/10/06 08:09:51;;;;;;;12.02;7.22;;;10.10;99.90;;;;;;5057387;28;20186;-33
2021/10/06 08:12:24;;;;;;;11.25;6.32;;;10.00;99.90;;;;;;5069364;28;20205;-33
2021/10/06 08:14:55;;;;;;;7.07;6.37;;;10.00;99.90;;;;;;5069543;28;20224;-33
2021/10/06 08:17:26;;;;;;;12.10;6.15;;;10.00;99.90;;;;;;5067710;28;20488;-33
2021/10/06 08:19:57;;;;;;;6.20;5.60;;;10.00;99.90;;;;;;5064316;28;20217;-33
2021/10/06 08:22:28;;;;;;;8.13;5.40;;;10.00;99.90;;;;;;5065886;28;20449;-33
2021/10/06 08:24:59;;;;;;;7.07;5.80;;;10.00;99.90;;;;;;5065453;28;20516;-33
2021/10/06 08:27:32;;;;;;;7.60;5.30;;;10.00;99.90;;;;;;5065845;28;20460;-33
2021/10/06 08:30:02;;;;;;;6.15;5.43;;;10.00;99.90;;;;;;5065993;28;20237;-33
2021/10/06 08:32:33;;;;;;;9.73;5.78;;;10.00;99.90;;;;;;5064441;28;20205;-33
2021/10/06 08:35:05;;;;;;;9.10;6.05;;;10.00;99.90;;;;;;5064982;28;20206;-33
2021/10/06 08:37:37;;;;;;;9.02;5.35;;;10.00;99.90;;;;;;5065158;28;20233;-33
2021/10/06 08:40:09;;;;;;;6.82;6.22;;;9.90;99.90;;;;;;5065431;28;20198;-33
2021/10/06 08:42:42;;;;;;;7.22;5.82;;;9.90;99.90;;;;;;5065588;28;20201;-33
2021/10/06 08:45:13;;;;;;;8.63;5.00;;;9.90;99.90;;;;;;5064906;28;20229;-33
2021/10/06 08:47:45;;;;;;;7.47;6.20;;;9.90;99.90;;;;;;5064957;28;20221;-33
2021/10/06 08:50:18;;;;;;;5.13;4.50;;;9.80;99.90;;;;;;5064747;28;20229;-33
2021/10/06 08:52:50;;;;;;;5.95;4.38;;;9.90;99.90;;;;;;5065278;28;20300;-33
2021/10/06 08:55:28;;;;;;;5.68;4.97;;;9.90;99.90;;;;;;5064198;28;20193;-33
2021/10/06 08:58:01;;;;;;;6.80;4.72;;;9.90;99.90;;;;;;5065161;28;20726;-33
2021/10/06 09:00:33;;;;;;;9.80;5.45;;;9.90;99.90;;;;;;5059271;28;20221;-33
2021/10/06 09:03:09;;;;;;;5.68;5.15;;;9.90;99.90;;;;;;5044531;28;20230;-33
2021/10/06 09:05:40;;;;;;;4.60;4.10;;;9.80;99.90;;;;;;5045197;28;20217;-33
2021/10/06 09:08:11;;;;;;;9.10;4.60;;;9.80;99.90;;;;;;5045203;28;20325;-33
2021/10/06 09:10:47;;;;;;;5.53;4.75;;;9.80;99.90;;;;;;5044649;28;20187;-33
2021/10/06 09:13:27;;;;;;;5.90;4.35;;;9.70;99.90;;;;;;5045739;28;20205;-33
2021/10/06 09:15:59;;;;;;;5.20;4.50;;;9.70;99.90;;;;;;5064205;28;20276;-33
2021/10/06 09:18:31;;;;;;;5.10;3.80;;;9.70;99.90;;;;;;5064099;28;20315;-33
2021/10/06 09:21:05;;;;;;;5.80;5.20;;;9.80;99.90;;;;;;5064283;28;20206;-34
2021/10/06 09:23:40;;;;;;;8.60;5.13;;;9.70;99.90;;;;;;5064429;28;20245;-33
2021/10/06 09:26:12;;;;;;;6.50;4.60;;;9.70;99.90;;;;;;5064461;28;20288;-33
2021/10/06 09:28:47;;;;;;;5.15;4.65;;;9.60;99.90;;;;;;5064778;28;20233;-33
2021/10/06 09:31:20;;;;;;;5.57;4.07;;;9.70;99.90;;;;;;5062595;28;20598;-33
2021/10/06 09:33:53;;;;;;;5.00;4.50;;;9.70;99.90;;;;;;5064264;28;20329;-33
2021/10/06 09:36:26;;;;;;;6.18;4.63;;;9.60;99.90;;;;;;5063895;28;20266;-33
2021/10/06 09:38:58;;;;;;;4.40;4.00;;;9.60;99.90;;;;;;5064288;28;20305;-33
2021/10/06 09:41:35;;;;;;;6.50;4.35;;;9.60;99.90;;;;;;5063259;28;20198;-33
2021/10/06 09:44:09;;;;;;;6.95;4.60;;;9.60;99.90;;;;;;5064178;28;20228;-33
2021/10/06 09:46:53;;;;;;;6.72;3.97;;;9.60;99.90;;;;;;5063644;28;20221;-33
2021/10/06 09:49:28;;;;;;;6.22;4.22;;;9.60;99.90;;;;;;5063989;28;20210;-33
2021/10/06 09:52:16;;;;;;;6.27;3.93;;;9.60;99.90;;;;;;5063295;28;20201;-33
2021/10/06 09:54:50;;;;;;;6.60;5.00;;;9.60;99.90;;;;;;5064247;28;20543;-33
2021/10/06 09:57:29;;;;;;;4.78;4.03;;;9.70;99.90;;;;;;5063662;28;20217;-33
2021/10/06 10:00:03;;;;;;;4.18;3.70;;;9.70;99.90;;;;;;5063471;28;20238;-33
2021/10/06 10:02:34;;;;;;;6.10;3.80;;;9.80;99.90;;;;;;5062385;28;20201;-33
2021/10/06 10:05:07;;;;;;;6.15;4.50;;;9.80;99.90;;;;;;5064185;28;20213;-33
2021/10/06 10:07:38;;;;;;;5.32;4.15;;;9.80;99.90;;;;;;5063787;28;20264;-33
2021/10/06 10:10:11;;;;;;;5.50;3.60;;;9.90;99.90;;;;;;5063897;28;20206;-33
2021/10/06 10:12:43;;;;;;;6.40;4.72;;;9.90;99.90;;;;;;5063259;28;20200;-33
2021/10/06 10:15:19;;;;;;;5.03;3.80;;;9.90;99.90;;;;;;5063217;28;20194;-33
2021/10/06 10:17:54;;;;;;;7.00;3.55;;;9.90;99.90;;;;;;5063277;28;20260;-33
2021/10/06 10:20:26;;;;;;;4.33;3.47;;;10.00;99.90;;;;;;5064175;28;20206;-33
2021/10/06 10:22:59;;;;;;;8.40;4.28;;;10.00;99.90;;;;;;5062800;28;20444;-33
2021/10/06 10:25:34;;;;;;;7.07;3.50;;;10.00;99.90;;;;;;5063079;28;20626;-33
2021/10/06 10:28:07;;;;;;;5.18;3.70;;;10.10;99.90;;;;;;5063247;28;20900;-33
2021/10/06 10:30:42;;;;;;;9.13;4.45;;;10.10;99.90;;;;;;5063277;28;20206;-33
2021/10/06 10:33:42;;;;;;;4.82;3.75;;;10.10;99.90;;;;;;5062186;28;20214;-33
2021/10/06 10:36:48;;;;;;;5.25;4.05;;;10.10;99.90;;;;;;5063210;28;20239;-33
2021/10/06 10:39:51;;;;;;;5.67;3.47;;;10.10;99.90;;;;;;5063263;28;20633;-33
2021/10/06 10:42:22;;;;;;;5.00;3.88;;;10.00;99.90;;;;;;5062488;28;20444;-33
2021/10/06 10:44:53;;;;;;;6.28;3.38;;;10.00;99.90;;;;;;5063301;28;20190;-33
2021/10/06 10:47:26;;;;;;;5.30;3.65;;;9.90;99.90;;;;;;5062762;28;20288;-33
2021/10/06 10:49:57;;;;;;;4.25;3.40;;;10.00;99.90;;;;;;5063049;28;20222;-33
2021/10/06 10:52:49;;;;;;;4.75;4.25;;;10.00;99.90;;;;;;5062458;28;20210;-33
2021/10/06 10:55:40;;;;;;;9.43;3.90;;;10.10;99.90;;;;;;5062089;28;20503;-33
2021/10/06 10:58:28;;;;;;;3.85;3.30;;;10.00;99.90;;;;;;5063073;28;20300;-33
2021/10/06 11:01:00;;;;;;;4.90;3.70;;;10.10;99.90;;;;;;5053925;28;20214;-33
2021/10/06 11:03:34;;;;;;;4.75;3.70;;;10.20;99.90;;;;;;5044164;28;20445;-33
2021/10/06 11:06:05;;;;;;;5.60;3.25;;;10.20;99.90;;;;;;5063385;28;20194;-33
2021/10/06 11:08:36;;;;;;;8.10;3.55;;;10.20;99.90;;;;;;5062841;28;20232;-33
2021/10/06 11:11:29;;;;;;;6.27;3.20;;;10.30;99.90;;;;;;5062946;28;20224;-33
2021/10/06 11:14:21;;;;;;;4.85;3.13;;;10.30;99.90;;;;;;5062447;28;20460;-33
2021/10/06 11:17:14;;;;;;;4.68;3.47;;;10.40;99.90;;;;;;5061976;28;20244;-33
2021/10/06 11:19:48;;;;;;;7.15;2.83;;;10.40;99.90;;;;;;5062548;28;20276;-33
2021/10/06 11:22:43;;;;;;;5.28;4.07;;;10.40;99.90;;;;;;5062780;28;20259;-33
2021/10/06 11:25:14;;;;;;;5.53;2.80;;;10.30;99.90;;;;;;5061117;28;20209;-33
2021/10/06 11:27:49;;;;;;;9.63;3.53;;;10.30;99.90;;;;;;5062718;28;20429;-33
2021/10/06 11:30:21;;;;;;;4.57;3.20;;;10.30;99.90;;;;;;5043315;28;20329;-33
2021/10/06 11:32:54;;;;;;;5.03;3.15;;;10.20;99.90;;;;;;5042152;28;20650;-33
2021/10/06 11:35:35;;;;;;;6.82;3.22;;;10.20;99.90;;;;;;5059720;28;20245;-33
2021/10/06 11:38:10;;;;;;;4.25;2.90;;;10.20;99.90;;;;;;5062244;28;20214;-33
2021/10/06 11:40:41;;;;;;;5.03;3.60;;;10.20;99.90;;;;;;5062727;28;20210;-33
2021/10/06 11:43:12;;;;;;;4.57;2.80;;;10.20;99.90;;;;;;5062459;28;20218;-33
2021/10/06 11:45:50;;;;;;;3.92;2.92;;;10.20;99.90;;;;;;5062415;28;20233;-33
2021/10/06 11:48:24;;;;;;;5.67;3.63;;;10.30;99.90;;;;;;5062206;28;20389;-33
2021/10/06 11:50:57;;;;;;;3.60;3.17;;;10.20;99.90;;;;;;5062551;28;20444;-33
2021/10/06 11:53:43;;;;;;;4.25;3.22;;;10.20;99.90;;;;;;5062364;28;20237;-33
2021/10/06 11:56:26;;;;;;;4.40;2.67;;;10.20;99.90;;;;;;5066309;28;20205;-33
2021/10/06 11:59:05;;;;;;;4.90;2.95;;;10.10;99.90;;;;;;5066417;28;20499;-33
2021/10/06 12:01:37;;;;;;;9.35;3.70;;;10.10;99.90;;;;;;5051625;28;20210;-32
2021/10/06 12:04:12;;;;;;;7.07;3.50;;;10.10;99.90;;;;;;5051394;28;20198;-33
2021/10/06 12:06:50;;;;;;;5.35;3.08;;;10.00;99.90;;;;;;5066210;28;20191;-33
2021/10/06 12:09:21;;;;;;;3.20;2.90;;;10.00;99.90;;;;;;5066039;28;20206;-33
2021/10/06 12:11:52;;;;;;;2.97;2.67;;;10.10;99.90;;;;;;5065950;28;20202;-33
2021/10/06 12:14:28;;;;;;;4.35;2.70;;;10.10;99.90;;;;;;5065445;28;20217;-33
2021/10/06 12:17:11;;;;;;;4.20;2.88;;;10.10;99.90;;;;;;5065004;28;20229;-33
2021/10/06 12:19:45;;;;;;;3.38;1.85;;;10.00;99.90;;;;;;5065619;28;20340;-33
2021/10/06 12:22:17;;;;;;;6.15;2.75;;;10.10;99.90;;;;;;5065833;28;20232;-32
2021/10/06 12:24:49;;;;;;;2.70;2.50;;;10.10;99.90;;;;;;5065496;28;20209;-33
2021/10/06 12:27:29;;;;;;;5.85;3.20;;;10.20;99.90;;;;;;5065715;28;20241;-33
2021/10/06 12:30:14;;;;;;;6.50;2.90;;;10.10;99.90;;;;;;5065458;28;20312;-33
2021/10/06 12:32:46;;;;;;;4.50;2.65;;;10.20;99.90;;;;;;5065067;28;20202;-33
2021/10/06 12:35:19;;;;;;;6.18;3.17;;;10.20;99.90;;;;;;5064912;28;20267;-33
2021/10/06 12:37:53;;;;;;;6.45;3.50;;;10.20;99.90;;;;;;5065389;28;20201;-33
2021/10/06 12:40:42;;;;;;;2.67;2.47;;;10.10;99.90;;;;;;5065846;28;20221;-33
2021/10/06 12:43:15;;;;;;;4.60;2.75;;;10.10;99.90;;;;;;5065662;28;20440;-33
2021/10/06 12:46:03;;;;;;;3.03;2.45;;;10.00;99.90;;;;;;5064161;28;20198;-33
2021/10/06 12:48:39;;;;;;;4.80;2.90;;;9.90;99.90;;;;;;5064667;28;20206;-33
2021/10/06 12:51:13;;;;;;;5.57;2.42;;;9.90;99.90;;;;;;5065285;28;20444;-33
2021/10/06 12:53:56;;;;;;;6.73;2.60;;;9.90;99.90;;;;;;5064533;28;20206;-33
2021/10/06 12:56:29;;;;;;;4.30;2.55;;;9.90;99.90;;;;;;5065097;28;20514;-33
2021/10/06 12:59:02;;;;;;;6.40;2.77;;;9.90;99.90;;;;;;5064870;28;20190;-33
2021/10/06 13:01:34;;;;;;;4.50;2.30;;;9.80;99.90;;;;;;5051319;28;20991;-33
2021/10/06 13:04:09;;;;;;;3.88;2.83;;;9.90;99.90;;;;;;5048301;28;20237;-33
2021/10/06 13:06:41;;;;;;;4.68;2.95;;;9.90;99.90;;;;;;5064872;28;20344;-33
2021/10/06 13:09:14;;;;;;;3.20;2.85;;;9.90;99.90;;;;;;5064887;28;20217;-33
2021/10/06 13:11:46;;;;;;;4.25;2.53;;;9.90;99.90;;;;;;5064759;28;20248;-33
2021/10/06 13:14:17;;;;;;;5.93;2.60;;;10.00;99.90;;;;;;5064218;28;20255;-33
2021/10/06 13:16:49;;;;;;;4.28;2.75;;;10.10;99.90;;;;;;5064267;28;20238;-32